createdAt,value
2024-02-17T00:08:32.854Z,14.13
2024-02-17T00:18:45.101Z,13.67
2024-02-17T00:28:49.189Z,14.80
2024-02-17T00:38:57.608Z,13.70
2024-02-17T00:49:02.547Z,17.30
2024-02-17T00:59:04.829Z,14.70
2024-02-17T01:09:08.879Z,14.87
2024-02-17T01:19:11.370Z,15.10
2024-02-17T01:29:20.346Z,14.93
2024-02-17T01:39:28.762Z,12.33
2024-02-17T01:49:31.964Z,13.93
2024-02-17T01:59:35.122Z,14.67
2024-02-17T02:09:37.659Z,14.10
2024-02-17T02:19:42.360Z,14.00
2024-02-17T02:29:50.167Z,14.80
2024-02-17T02:39:54.880Z,14.23
2024-02-17T02:50:01.560Z,13.73
2024-02-17T03:00:05.388Z,13.07
2024-02-17T03:10:08.327Z,12.17
2024-02-17T03:20:14.480Z,13.47
2024-02-17T03:30:16.917Z,12.10
2024-02-17T03:40:25.589Z,12.15
2024-02-17T03:50:31.369Z,12.07
2024-02-17T04:00:33.740Z,11.23
2024-02-17T04:10:38.823Z,10.50
2024-02-17T04:20:41.161Z,11.80
2024-02-17T04:30:43.740Z,10.18
2024-02-17T04:40:48.918Z,10.77
2024-02-17T04:50:53.842Z,10.43
2024-02-17T05:00:58.561Z,10.43
2024-02-17T05:11:03.355Z,10.23
2024-02-17T05:21:08.105Z,10.32
2024-02-17T05:31:27.884Z,10.35
2024-02-17T05:41:30.286Z,9.95
2024-02-17T05:51:37.459Z,10.67
2024-02-17T06:01:39.767Z,12.35
2024-02-17T06:11:42.064Z,12.32
2024-02-17T06:21:51.762Z,12.05
2024-02-17T06:31:56.381Z,13.18
2024-02-17T06:42:02.400Z,14.95
2024-02-17T06:52:07.041Z,14.55
2024-02-17T07:02:09.322Z,14.73
2024-02-17T07:12:13.105Z,15.05
2024-02-17T07:22:18.328Z,16.13
2024-02-17T07:32:24.497Z,16.23
2024-02-17T07:42:29.991Z,17.63
2024-02-17T07:52:35.883Z,15.75
2024-02-17T08:02:40.518Z,17.70
2024-02-17T08:12:45.877Z,19.45
2024-02-17T08:22:49.761Z,18.55
2024-02-17T08:32:55.584Z,19.13
2024-02-17T08:43:00.257Z,20.50
2024-02-17T08:53:05.798Z,19.15
2024-02-17T09:03:15.012Z,19.35
2024-02-17T09:13:24.031Z,18.75
2024-02-17T09:23:26.283Z,16.95
2024-02-17T09:33:31.813Z,17.40
2024-02-17T09:43:39.164Z,16.88
2024-02-17T09:53:43.568Z,19.45
2024-02-17T10:03:45.933Z,19.38
2024-02-17T10:14:06.008Z,22.10
2024-02-17T10:24:08.978Z,21.02
2024-02-17T10:34:13.771Z,22.07
2024-02-17T10:44:20.725Z,21.20
2024-02-17T10:54:29.941Z,20.77
2024-02-17T11:04:34.905Z,20.45
2024-02-17T11:14:40.569Z,19.60
2024-02-17T11:24:49.996Z,19.15
2024-02-17T11:34:57.202Z,19.23
2024-02-17T11:45:01.760Z,17.63
2024-02-17T11:55:10.316Z,16.52
2024-02-17T12:05:17.404Z,16.27
2024-02-17T12:15:20.337Z,14.60
2024-02-17T12:25:29.822Z,12.27
2024-02-17T12:35:32.140Z,12.15
2024-02-17T12:45:34.632Z,11.52
2024-02-17T12:55:39.344Z,10.18
2024-02-17T13:05:46.314Z,7.53
2024-02-17T13:15:52.700Z,5.72
2024-02-17T13:26:00.367Z,5.22
2024-02-17T13:36:03.354Z,4.57
2024-02-17T13:46:07.909Z,3.85
2024-02-17T13:56:12.519Z,3.85
2024-02-17T14:06:17.487Z,4.70
2024-02-17T14:16:19.849Z,4.65
2024-02-17T14:26:23.305Z,4.80
2024-02-17T14:36:28.118Z,3.80
2024-02-17T14:46:37.922Z,3.55
2024-02-17T14:56:40.196Z,2.50
2024-02-17T15:06:43.485Z,2.88
2024-02-17T15:16:45.739Z,2.45
2024-02-17T15:26:48.042Z,2.38
2024-02-17T15:36:52.851Z,2.70
2024-02-17T15:46:55.282Z,1.70
2024-02-17T15:56:58.018Z,1.75
2024-02-17T16:07:03.160Z,1.67
2024-02-17T16:17:05.638Z,1.83
2024-02-17T16:27:08.282Z,1.90
2024-02-17T16:37:10.509Z,1.60
2024-02-17T16:47:13.708Z,1.37
2024-02-17T16:57:16.056Z,1.47
2024-02-17T17:07:22.134Z,1.30
2024-02-17T17:17:24.607Z,0.97
2024-02-17T17:27:28.354Z,1.53
2024-02-17T17:37:35.184Z,1.20
2024-02-17T17:47:39.924Z,1.43
2024-02-17T17:57:42.360Z,1.70
2024-02-17T18:07:49.116Z,1.13
2024-02-17T18:17:53.900Z,1.60
2024-02-17T18:28:01.385Z,1.63
2024-02-17T18:38:03.813Z,1.23
2024-02-17T18:48:08.547Z,1.70
2024-02-17T18:58:10.929Z,1.60
2024-02-17T19:08:21.096Z,1.90
2024-02-17T19:18:28.233Z,1.47
2024-02-17T19:28:33.045Z,1.40
2024-02-17T19:38:39.790Z,1.97
2024-02-17T19:48:43.062Z,1.90
2024-02-17T19:59:09.871Z,1.87
2024-02-17T20:09:14.623Z,1.83
2024-02-17T20:19:17.574Z,1.93
2024-02-17T20:29:19.888Z,1.93
2024-02-17T20:39:23.107Z,2.40
2024-02-17T20:49:25.443Z,2.80
2024-02-17T20:59:30.311Z,1.60
2024-02-17T21:09:32.809Z,1.80
2024-02-17T21:19:39.240Z,1.73
2024-02-17T21:29:44.066Z,1.70
2024-02-17T21:39:51.810Z,1.60
2024-02-17T21:49:54.157Z,1.60
2024-02-17T21:59:58.989Z,2.20
2024-02-17T22:10:03.311Z,1.57
2024-02-17T22:20:12.009Z,1.33
2024-02-17T22:30:14.614Z,2.07
2024-02-17T22:40:24.047Z,1.40
2024-02-17T22:50:29.367Z,1.47
2024-02-17T23:00:36.535Z,2.00
2024-02-17T23:10:40.145Z,1.73
2024-02-17T23:20:42.384Z,1.27
2024-02-17T23:30:46.866Z,1.60
2024-02-17T23:40:51.311Z,1.30
2024-02-17T23:50:56.055Z,1.47
